createdAt,value
2023-02-14T00:00:04.956Z,102551.09
2023-02-14T00:02:06.903Z,102544.47
2023-02-14T00:04:11.921Z,102541.78
2023-02-14T00:06:14.386Z,102539.28
2023-02-14T00:08:17.306Z,102543.44
2023-02-14T00:10:19.189Z,102538.63
2023-02-14T00:12:20.925Z,102540.34
2023-02-14T00:14:24.024Z,102542.59
2023-02-14T00:16:25.876Z,102547.78
2023-02-14T00:18:28.792Z,102551.28
2023-02-14T00:20:31.612Z,102547.56
2023-02-14T00:22:33.234Z,102549.63
2023-02-14T00:24:37.233Z,102544.66
2023-02-14T00:26:39.280Z,102536.81
2023-02-14T00:28:40.946Z,102542.19
2023-02-14T00:30:43.977Z,102542.81
2023-02-14T00:32:45.595Z,102549.22
2023-02-14T00:34:47.313Z,102546.94
2023-02-14T00:36:49.173Z,102550.47
2023-02-14T00:38:50.817Z,102546.28
2023-02-14T00:40:52.484Z,102549.84
2023-02-14T00:42:56.918Z,102540.53
2023-02-14T00:44:58.565Z,102542.59
2023-02-14T00:47:01.633Z,102540.75
2023-02-14T00:49:04.125Z,102539.53
2023-02-14T00:51:06.027Z,102541.00
2023-02-14T00:53:07.729Z,102538.72
2023-02-14T00:55:10.494Z,102542.03
2023-02-14T00:57:12.119Z,102535.41
2023-02-14T00:59:13.905Z,102537.06
2023-02-14T01:01:16.994Z,102533.97
2023-02-14T01:03:20.265Z,102527.38
2023-02-14T01:05:21.996Z,102528.22
2023-02-14T01:07:23.707Z,102524.06
2023-02-14T01:09:25.506Z,102538.09
2023-02-14T01:11:29.289Z,102521.81
2023-02-14T01:13:31.690Z,102530.47
2023-02-14T01:15:34.083Z,102527.81
2023-02-14T01:17:35.693Z,102531.91
2023-02-14T01:19:38.695Z,102532.72
2023-02-14T01:21:41.638Z,102536.66
2023-02-14T01:23:44.519Z,102538.72
2023-02-14T01:25:46.268Z,102546.13
2023-02-14T01:27:47.858Z,102543.25
2023-02-14T01:29:49.611Z,102544.03
2023-02-14T01:31:51.630Z,102548.19
2023-02-14T01:33:54.379Z,102540.94
2023-02-14T01:35:57.492Z,102545.28
2023-02-14T01:37:59.427Z,102540.53
2023-02-14T01:40:07.145Z,102538.47
2023-02-14T01:42:10.718Z,102537.84
2023-02-14T01:44:45.764Z,102538.88
2023-02-14T01:46:47.544Z,102542.19
2023-02-14T01:48:50.772Z,102536.81
2023-02-14T01:50:53.943Z,102540.75
2023-02-14T01:53:02.440Z,102551.47
2023-02-14T01:55:12.155Z,102546.09
2023-02-14T01:57:17.398Z,102552.28
2023-02-14T01:59:25.253Z,102550.84
2023-02-14T02:01:28.105Z,102552.28
2023-02-14T02:03:34.100Z,102560.34
2023-02-14T02:05:37.844Z,102548.38
2023-02-14T02:07:39.962Z,102556.84
2023-02-14T02:09:49.204Z,102563.84
2023-02-14T02:11:51.264Z,102560.53
2023-02-14T02:13:52.911Z,102563.59
2023-02-14T02:16:11.148Z,102564.03
2023-02-14T02:18:23.955Z,102562.59
2023-02-14T02:20:59.248Z,102564.19
2023-02-14T02:23:38.568Z,102562.34
2023-02-14T02:26:07.102Z,102563.19
2023-02-14T02:28:32.133Z,102562.75
2023-02-14T02:31:03.925Z,102559.28
2023-02-14T02:33:53.296Z,102556.34
2023-02-14T02:36:13.103Z,102548.91
2023-02-14T02:38:27.896Z,102547.91
2023-02-14T02:40:44.654Z,102552.63
2023-02-14T02:42:58.317Z,102552.41
2023-02-14T02:45:10.696Z,102554.47
2023-02-14T02:47:21.389Z,102556.97
2023-02-14T02:49:37.039Z,102554.47
2023-02-14T02:51:47.957Z,102548.25
2023-02-14T02:53:52.410Z,102545.75
2023-02-14T02:55:57.556Z,102544.28
2023-02-14T02:58:00.013Z,102544.03
2023-02-14T03:00:04.235Z,102536.03
2023-02-14T03:02:12.683Z,102540.59
2023-02-14T03:04:16.593Z,102542.44
2023-02-14T03:06:18.178Z,102546.16
2023-02-14T03:08:21.168Z,102551.31
2023-02-14T03:10:24.837Z,102551.91
2023-02-14T03:12:47.156Z,102553.38
2023-02-14T03:14:56.061Z,102547.59
2023-02-14T03:17:04.453Z,102549.41
2023-02-14T03:19:40.011Z,102551.06
2023-02-14T03:21:48.680Z,102544.06
2023-02-14T03:23:56.525Z,102543.00
2023-02-14T03:26:09.985Z,102549.41
2023-02-14T03:28:17.549Z,102547.94
2023-02-14T03:30:30.296Z,102551.41
2023-02-14T03:32:38.749Z,102554.31
2023-02-14T03:34:51.477Z,102555.34
2023-02-14T03:36:58.537Z,102553.25
2023-02-14T03:39:08.037Z,102548.88
2023-02-14T03:41:14.078Z,102557.13
2023-02-14T03:43:21.320Z,102549.28
2023-02-14T03:45:30.333Z,102546.03
2023-02-14T03:47:36.110Z,102549.31
2023-02-14T03:49:43.587Z,102555.13
2023-02-14T03:51:49.774Z,102553.00
2023-02-14T03:54:04.801Z,102551.19
2023-02-14T03:56:13.894Z,102543.75
2023-02-14T03:58:21.487Z,102545.72
2023-02-14T04:00:23.771Z,102549.03
2023-02-14T04:02:31.042Z,102548.03
2023-02-14T04:04:37.086Z,102547.22
2023-02-14T04:06:39.085Z,102548.84
2023-02-14T04:08:40.766Z,102551.34
2023-02-14T04:10:43.710Z,102550.13
2023-02-14T04:12:46.229Z,102550.75
2023-02-14T04:14:55.354Z,102555.44
2023-02-14T04:16:57.054Z,102556.47
2023-02-14T04:18:58.654Z,102556.47
2023-02-14T04:21:00.696Z,102565.50
2023-02-14T04:23:04.328Z,102562.38
2023-02-14T04:25:07.883Z,102564.03
2023-02-14T04:27:11.390Z,102565.00
2023-02-14T04:29:13.282Z,102567.03
2023-02-14T04:31:18.034Z,102572.00
2023-02-14T04:33:19.715Z,102571.63
2023-02-14T04:35:21.658Z,102569.13
2023-02-14T04:37:24.257Z,102565.38
2023-02-14T04:39:26.316Z,102563.13
2023-02-14T04:41:27.943Z,102555.66
2023-02-14T04:43:31.116Z,102564.25
2023-02-14T04:45:34.527Z,102570.59
2023-02-14T04:47:36.193Z,102566.66
2023-02-14T04:49:37.861Z,102558.88
2023-02-14T04:51:41.781Z,102566.06
2023-02-14T04:53:44.089Z,102559.97
2023-02-14T04:55:45.765Z,102566.72
2023-02-14T04:57:47.751Z,102559.25
2023-02-14T04:59:50.806Z,102561.19
2023-02-14T05:01:53.119Z,102569.66
2023-02-14T05:03:54.822Z,102567.19
2023-02-14T05:05:56.598Z,102550.69
2023-02-14T05:07:58.235Z,102563.44
2023-02-14T05:10:01.353Z,102556.00
2023-02-14T05:12:11.105Z,102559.13
2023-02-14T05:14:12.718Z,102553.13
2023-02-14T05:16:15.757Z,102556.06
2023-02-14T05:18:17.325Z,102549.84
2023-02-14T05:20:19.057Z,102554.41
2023-02-14T05:22:20.623Z,102549.84
2023-02-14T05:24:22.308Z,102552.09
2023-02-14T05:26:23.891Z,102550.81
2023-02-14T05:28:25.577Z,102544.38
2023-02-14T05:30:27.284Z,102549.31
2023-02-14T05:32:30.196Z,102545.84
2023-02-14T05:34:31.716Z,102545.25
2023-02-14T05:36:33.462Z,102544.81
2023-02-14T05:38:35.035Z,102547.13
2023-02-14T05:40:36.581Z,102548.66
2023-02-14T05:42:38.373Z,102547.63
2023-02-14T05:44:39.940Z,102550.31
2023-02-14T05:46:41.512Z,102551.94
2023-02-14T05:48:44.578Z,102556.22
2023-02-14T05:53:01.841Z,102555.34
2023-02-14T05:55:04.337Z,102556.63
2023-02-14T05:57:05.894Z,102557.88
2023-02-14T05:59:07.457Z,102559.09
2023-02-14T06:01:09.046Z,102556.63
2023-02-14T06:03:10.664Z,102558.91
2023-02-14T06:05:13.513Z,102566.38
2023-02-14T06:07:15.125Z,102559.94
2023-02-14T06:09:16.761Z,102565.28
2023-02-14T06:11:18.344Z,102564.38
2023-02-14T06:13:19.946Z,102565.97
2023-02-14T06:15:22.244Z,102566.34
2023-02-14T06:17:23.805Z,102566.34
2023-02-14T06:19:25.385Z,102565.81
2023-02-14T06:21:28.444Z,102565.59
2023-02-14T06:23:30.052Z,102561.72
2023-02-14T06:25:31.781Z,102566.25
2023-02-14T06:27:33.473Z,102576.38
2023-02-14T06:29:35.054Z,102569.56
2023-02-14T06:31:36.998Z,102573.88
2023-02-14T06:33:38.669Z,102569.16
2023-02-14T06:35:40.185Z,102573.50
2023-02-14T06:37:43.204Z,102577.00
2023-02-14T06:39:44.778Z,102576.81
2023-02-14T06:41:46.363Z,102576.16
2023-02-14T06:43:48.196Z,102580.50
2023-02-14T06:45:49.778Z,102586.50
2023-02-14T06:47:51.408Z,102588.59
2023-02-14T06:49:52.982Z,102592.47
2023-02-14T06:51:54.545Z,102599.06
2023-02-14T06:53:57.579Z,102592.72
2023-02-14T06:55:59.200Z,102597.69
2023-02-14T06:58:00.843Z,102601.81
2023-02-14T07:00:03.037Z,102596.09
2023-02-14T07:02:04.956Z,102597.53
2023-02-14T07:04:06.485Z,102595.28
2023-02-14T07:06:08.020Z,102604.56
2023-02-14T07:08:09.701Z,102604.56
2023-02-14T07:10:13.328Z,102605.78
2023-02-14T07:12:14.916Z,102608.88
2023-02-14T07:14:16.477Z,102610.53
2023-02-14T07:16:18.104Z,102613.22
2023-02-14T07:18:19.747Z,102613.00
2023-02-14T07:20:21.538Z,102608.25
2023-02-14T07:22:23.112Z,102608.88
2023-02-14T07:24:24.777Z,102605.44
2023-02-14T07:26:27.796Z,102606.69
2023-02-14T07:28:32.512Z,102610.16
2023-02-14T07:30:34.264Z,102602.56
2023-02-14T07:32:37.165Z,102612.44
2023-02-14T07:34:38.705Z,102609.75
2023-02-14T07:36:40.341Z,102616.00
2023-02-14T07:38:42.022Z,102611.53
2023-02-14T07:40:43.726Z,102609.47
2023-02-14T07:42:52.670Z,102605.84
2023-02-14T07:44:54.359Z,102595.81
2023-02-14T07:46:56.041Z,102596.03
2023-02-14T07:48:57.557Z,102586.59
2023-02-14T07:50:59.576Z,102585.13
2023-02-14T07:53:01.433Z,102592.13
2023-02-14T07:55:03.036Z,102590.47
2023-02-14T07:57:05.480Z,102585.22
2023-02-14T07:59:08.457Z,102593.47
2023-02-14T08:01:09.953Z,102586.25
2023-02-14T08:03:11.599Z,102589.81
2023-02-14T08:05:16.335Z,102587.81
2023-02-14T08:07:18.107Z,102592.13
2023-02-14T08:09:20.715Z,102591.69
2023-02-14T08:11:22.290Z,102591.53
2023-02-14T08:13:23.864Z,102585.31
2023-02-14T08:15:27.850Z,102589.06
2023-02-14T08:17:29.400Z,102587.03
2023-02-14T08:19:30.922Z,102580.25
2023-02-14T08:21:32.640Z,102579.66
2023-02-14T08:23:35.129Z,102581.91
2023-02-14T08:25:36.698Z,102585.88
2023-02-14T08:27:38.324Z,102586.28
2023-02-14T08:29:39.876Z,102579.31
2023-02-14T08:31:42.965Z,102586.16
2023-02-14T08:33:44.614Z,102582.63
2023-02-14T08:35:46.298Z,102588.78
2023-02-14T08:37:48.076Z,102596.38
2023-02-14T08:39:50.020Z,102600.28
2023-02-14T08:41:51.581Z,102591.22
2023-02-14T08:43:53.220Z,102591.72
2023-02-14T08:45:55.255Z,102596.03
2023-02-14T08:48:02.691Z,102590.63
2023-02-14T08:50:05.757Z,102593.56
2023-02-14T08:52:07.323Z,102592.03
2023-02-14T08:54:08.873Z,102590.84
2023-02-14T08:56:11.990Z,102598.41
2023-02-14T08:58:13.632Z,102593.63
2023-02-14T09:00:15.941Z,102596.47
2023-02-14T09:02:17.502Z,102593.56
2023-02-14T09:04:20.441Z,102593.16
2023-02-14T09:06:22.099Z,102593.84
2023-02-14T09:08:23.684Z,102598.56
2023-02-14T09:10:25.703Z,102598.13
2023-02-14T09:12:27.363Z,102593.25
2023-02-14T09:14:31.173Z,102591.13
2023-02-14T09:16:33.782Z,102590.00
2023-02-14T09:18:37.835Z,102589.44
2023-02-14T09:20:40.723Z,102595.09
2023-02-14T09:22:42.369Z,102594.06
2023-02-14T09:24:44.670Z,102592.81
2023-02-14T09:26:46.185Z,102594.66
2023-02-14T09:28:48.177Z,102587.88
2023-02-14T09:30:49.835Z,102588.75
2023-02-14T09:32:52.583Z,102587.75
2023-02-14T09:34:54.227Z,102587.16
2023-02-14T09:36:59.929Z,102577.94
2023-02-14T09:39:01.720Z,102581.66
2023-02-14T09:41:05.840Z,102575.66
2023-02-14T09:43:11.635Z,102582.09
2023-02-14T09:45:16.660Z,102587.84
2023-02-14T09:47:23.052Z,102577.75
2023-02-14T09:49:31.632Z,102577.78
2023-02-14T09:51:33.405Z,102576.34
2023-02-14T09:53:43.667Z,102581.31
2023-02-14T09:55:53.957Z,102579.25
2023-02-14T09:58:04.792Z,102576.97
2023-02-14T10:00:17.451Z,102574.75
2023-02-14T10:02:33.639Z,102580.13
2023-02-14T10:04:40.508Z,102579.69
2023-02-14T10:06:50.399Z,102576.41
2023-02-14T10:09:02.845Z,102575.19
2023-02-14T10:11:15.375Z,102569.22
2023-02-14T10:13:22.469Z,102568.81
2023-02-14T10:15:27.478Z,102575.63
2023-02-14T10:17:38.260Z,102578.28
2023-02-14T10:19:43.694Z,102580.75
2023-02-14T10:21:52.170Z,102574.78
2023-02-14T10:24:00.210Z,102582.44
2023-02-14T10:26:04.154Z,102575.00
2023-02-14T10:28:11.292Z,102571.28
2023-02-14T10:30:16.871Z,102568.00
2023-02-14T10:32:25.204Z,102571.28
2023-02-14T10:34:35.076Z,102554.78
2023-02-14T10:36:51.221Z,102563.25
2023-02-14T10:39:01.405Z,102560.56
2023-02-14T10:41:18.974Z,102560.41
2023-02-14T10:43:27.903Z,102555.03
2023-02-14T10:45:38.954Z,102551.94
2023-02-14T10:47:47.302Z,102552.97
2023-02-14T10:49:57.896Z,102546.78
2023-02-14T10:52:08.301Z,102542.88
2023-02-14T10:54:19.205Z,102546.59
2023-02-14T10:56:26.110Z,102537.28
2023-02-14T10:58:32.186Z,102535.63
2023-02-14T11:00:37.821Z,102534.19
2023-02-14T11:02:43.304Z,102535.19
2023-02-14T11:04:46.364Z,102534.34
2023-02-14T11:06:48.147Z,102536.25
2023-02-14T11:08:59.152Z,102534.19
2023-02-14T11:11:10.944Z,102535.22
2023-02-14T11:13:34.916Z,102536.88
2023-02-14T11:15:39.740Z,102537.06
2023-02-14T11:17:41.849Z,102537.91
2023-02-14T11:19:57.143Z,102531.50
2023-02-14T11:22:00.066Z,102531.91
2023-02-14T11:24:16.730Z,102531.91
2023-02-14T11:26:29.902Z,102524.69
2023-02-14T11:28:32.186Z,102521.19
2023-02-14T11:30:36.660Z,102516.22
2023-02-14T11:32:38.848Z,102516.00
2023-02-14T11:34:44.418Z,102508.97
2023-02-14T11:36:46.009Z,102504.47
2023-02-14T11:38:55.917Z,102497.66
2023-02-14T11:40:59.433Z,102500.53
2023-02-14T11:43:19.187Z,102493.50
2023-02-14T11:45:33.339Z,102497.84
2023-02-14T11:47:36.285Z,102497.63
2023-02-14T11:49:37.965Z,102499.06
2023-02-14T11:51:43.930Z,102493.31
2023-02-14T11:53:48.379Z,102482.97
2023-02-14T11:55:53.851Z,102487.94
2023-02-14T11:57:56.428Z,102478.22
2023-02-14T12:00:01.845Z,102479.66
2023-02-14T12:02:24.444Z,102471.59
2023-02-14T12:04:38.115Z,102468.28
2023-02-14T12:06:46.498Z,102469.31
2023-02-14T12:08:48.291Z,102462.31
2023-02-14T12:11:01.966Z,102469.72
2023-02-14T12:13:22.998Z,102456.28
2023-02-14T12:15:32.355Z,102456.50
2023-02-14T12:17:37.350Z,102455.25
2023-02-14T12:19:48.957Z,102458.34
2023-02-14T12:21:57.911Z,102450.50
2023-02-14T12:24:05.932Z,102446.78
2023-02-14T12:26:15.280Z,102444.31
2023-02-14T12:28:24.814Z,102442.66
2023-02-14T12:30:33.157Z,102439.75
2023-02-14T12:32:35.498Z,102434.16
2023-02-14T12:34:37.386Z,102432.94
2023-02-14T12:36:51.564Z,102423.84
2023-02-14T12:39:02.458Z,102423.63
2023-02-14T12:41:19.494Z,102418.66
2023-02-14T12:43:41.122Z,102419.28
2023-02-14T12:46:09.614Z,102422.97
2023-02-14T12:48:20.420Z,102419.06
2023-02-14T12:50:35.149Z,102419.88
2023-02-14T12:53:01.185Z,102417.38
2023-02-14T12:55:25.786Z,102418.00
2023-02-14T12:57:39.340Z,102421.31
2023-02-14T12:59:52.063Z,102424.41
2023-02-14T13:02:36.985Z,102416.19
2023-02-14T13:04:59.503Z,102418.25
2023-02-14T13:07:07.826Z,102411.59
2023-02-14T13:09:27.665Z,102402.75
2023-02-14T13:11:39.588Z,102396.53
2023-02-14T13:13:54.288Z,102405.22
2023-02-14T13:16:05.012Z,102395.34
2023-02-14T13:18:15.008Z,102401.47
2023-02-14T13:20:36.800Z,102404.41
2023-02-14T13:22:40.567Z,102403.31
2023-02-14T13:24:44.532Z,102393.19
2023-02-14T13:26:49.842Z,102395.88
2023-02-14T13:28:56.083Z,102389.28
2023-02-14T13:31:00.038Z,102389.69
2023-02-14T13:33:27.508Z,102386.75
2023-02-14T13:35:30.316Z,102384.69
2023-02-14T13:37:32.887Z,102382.81
2023-02-14T13:39:38.656Z,102380.78
2023-02-14T13:41:41.250Z,102371.69
2023-02-14T13:43:52.043Z,102374.75
2023-02-14T13:45:54.682Z,102373.53
2023-02-14T13:48:03.376Z,102372.03
2023-02-14T13:50:21.511Z,102372.66
2023-02-14T13:52:42.948Z,102372.69
2023-02-14T13:54:47.823Z,102374.56
2023-02-14T13:56:49.715Z,102375.38
2023-02-14T13:58:54.018Z,102371.66
2023-02-14T14:00:56.571Z,102372.06
2023-02-14T14:02:58.314Z,102377.66
2023-02-14T14:05:00.000Z,102377.28
2023-02-14T14:07:23.984Z,102370.03
2023-02-14T14:09:53.318Z,102369.00
2023-02-14T14:11:54.956Z,102368.81
2023-02-14T14:14:01.807Z,102367.16
2023-02-14T14:16:28.549Z,102361.94
2023-02-14T14:18:38.141Z,102365.03
2023-02-14T14:20:44.416Z,102354.16
2023-02-14T14:22:49.298Z,102354.94
2023-02-14T14:25:02.291Z,102353.31
2023-02-14T14:27:07.221Z,102343.81
2023-02-14T14:29:18.137Z,102349.00
2023-02-14T14:31:20.328Z,102342.56
2023-02-14T14:33:28.687Z,102345.25
2023-02-14T14:35:30.211Z,102339.25
2023-02-14T14:37:34.078Z,102343.38
2023-02-14T14:39:37.208Z,102338.81
2023-02-14T14:41:40.401Z,102337.75
2023-02-14T14:43:42.372Z,102331.19
2023-02-14T14:45:46.949Z,102333.44
2023-02-14T14:47:52.907Z,102333.44
2023-02-14T14:50:00.274Z,102331.34
2023-02-14T14:52:02.035Z,102334.25
2023-02-14T14:54:13.145Z,102327.25
2023-02-14T14:56:21.924Z,102332.81
2023-02-14T14:58:33.237Z,102322.25
2023-02-14T15:00:37.147Z,102319.97
2023-02-14T15:02:38.908Z,102318.75
2023-02-14T15:04:40.637Z,102322.28
2023-02-14T15:06:42.452Z,102320.72
2023-02-14T15:08:44.550Z,102314.44
2023-02-14T15:10:50.564Z,102315.53
2023-02-14T15:12:57.237Z,102316.47
2023-02-14T15:14:58.878Z,102306.50
2023-02-14T15:17:03.313Z,102307.69
2023-02-14T15:19:09.082Z,102306.47
2023-02-14T15:21:10.828Z,102307.63
2023-02-14T15:23:18.426Z,102296.69
2023-02-14T15:25:22.522Z,102298.50
2023-02-14T15:27:26.319Z,102295.81
2023-02-14T15:29:32.104Z,102304.91
2023-02-14T15:31:37.030Z,102299.81
2023-02-14T15:33:39.083Z,102300.81
2023-02-14T15:35:41.980Z,102294.78
2023-02-14T15:37:44.435Z,102294.38
2023-02-14T15:39:49.522Z,102298.91
2023-02-14T15:41:53.680Z,102303.78
2023-02-14T15:43:56.541Z,102298.53
2023-02-14T15:46:13.528Z,102305.81
2023-02-14T15:48:18.665Z,102298.34
2023-02-14T15:50:23.452Z,102299.53
2023-02-14T15:52:25.377Z,102297.88
2023-02-14T15:54:36.698Z,102299.75
2023-02-14T15:56:44.279Z,102303.59
2023-02-14T15:58:46.617Z,102299.47
2023-02-14T16:00:50.082Z,102296.78
2023-02-14T16:02:56.403Z,102292.63
2023-02-14T16:05:04.678Z,102298.59
2023-02-14T16:07:24.764Z,102292.00
2023-02-14T16:09:28.628Z,102298.19
2023-02-14T16:11:32.137Z,102295.69
2023-02-14T16:13:38.440Z,102292.81
2023-02-14T16:15:55.754Z,102293.97
2023-02-14T16:17:59.844Z,102293.41
2023-02-14T16:20:20.556Z,102296.31
2023-02-14T16:22:26.032Z,102287.66
2023-02-14T16:24:27.674Z,102291.38
2023-02-14T16:26:30.850Z,102290.81
2023-02-14T16:28:33.382Z,102291.44
2023-02-14T16:30:35.400Z,102295.94
2023-02-14T16:32:37.110Z,102287.50
2023-02-14T16:34:40.581Z,102296.38
2023-02-14T16:36:43.426Z,102295.09
2023-02-14T16:38:46.134Z,102286.88
2023-02-14T16:40:49.808Z,102298.00
2023-02-14T16:42:51.415Z,102296.69
2023-02-14T16:44:53.435Z,102295.03
2023-02-14T16:46:55.010Z,102297.34
2023-02-14T16:48:56.799Z,102301.09
2023-02-14T16:51:00.155Z,102293.69
2023-02-14T16:53:02.113Z,102298.44
2023-02-14T16:55:04.960Z,102293.06
2023-02-14T16:57:07.333Z,102293.91
2023-02-14T16:59:09.103Z,102295.31
2023-02-14T17:01:10.857Z,102297.16
2023-02-14T17:03:12.632Z,102302.75
2023-02-14T17:05:14.397Z,102296.75
2023-02-14T17:07:17.392Z,102303.53
2023-02-14T17:09:22.799Z,102300.84
2023-02-14T17:11:26.842Z,102305.63
2023-02-14T17:13:31.528Z,102308.31
2023-02-14T17:15:34.071Z,102300.47
2023-02-14T17:17:37.303Z,102315.75
2023-02-14T17:19:39.289Z,102319.84
2023-02-14T17:21:41.297Z,102313.66
2023-02-14T17:23:44.315Z,102323.31
2023-02-14T17:28:01.465Z,102320.88
2023-02-14T17:30:03.634Z,102322.94
2023-02-14T17:32:05.609Z,102328.28
2023-02-14T17:34:07.417Z,102332.41
2023-02-14T17:36:12.021Z,102329.13
2023-02-14T17:38:13.748Z,102324.81
2023-02-14T17:40:18.466Z,102313.47
2023-02-14T17:42:20.068Z,102315.72
2023-02-14T17:44:21.653Z,102316.53
2023-02-14T17:46:23.457Z,102322.13
2023-02-14T17:48:25.080Z,102316.53
2023-02-14T17:50:26.699Z,102311.59
2023-02-14T17:52:28.383Z,102316.75
2023-02-14T17:54:29.992Z,102316.94
2023-02-14T17:56:32.952Z,102315.50
2023-02-14T17:58:35.004Z,102315.50
2023-02-14T18:00:36.576Z,102308.69
2023-02-14T18:02:41.104Z,102311.38
2023-02-14T18:04:43.114Z,102304.56
2023-02-14T18:06:44.986Z,102309.09
2023-02-14T18:08:48.362Z,102306.19
2023-02-14T18:10:50.317Z,102302.25
2023-02-14T18:12:53.279Z,102290.72
2023-02-14T18:14:54.951Z,102305.16
2023-02-14T18:16:56.642Z,102299.44
2023-02-14T18:19:01.817Z,102297.38
2023-02-14T18:21:05.525Z,102296.34
2023-02-14T18:23:07.078Z,102294.94
2023-02-14T18:25:09.098Z,102298.41
2023-02-14T18:27:10.675Z,102293.28
2023-02-14T18:29:14.051Z,102295.34
2023-02-14T18:31:17.554Z,102293.44
2023-02-14T18:33:19.929Z,102291.78
2023-02-14T18:35:21.472Z,102286.44
2023-02-14T18:37:22.986Z,102285.59
2023-02-14T18:39:24.636Z,102286.03
2023-02-14T18:41:26.931Z,102288.69
2023-02-14T18:43:28.602Z,102280.66
2023-02-14T18:45:35.512Z,102275.69
2023-02-14T18:47:37.119Z,102276.88
2023-02-14T18:49:38.838Z,102271.97
2023-02-14T18:51:41.761Z,102274.78
2023-02-14T18:53:44.760Z,102269.44
2023-02-14T18:55:46.392Z,102268.41
2023-02-14T18:57:48.049Z,102264.72
2023-02-14T18:59:49.854Z,102268.03
2023-02-14T19:01:52.988Z,102265.09
2023-02-14T19:03:55.549Z,102264.81
2023-02-14T19:05:59.305Z,102268.13
2023-02-14T19:08:01.278Z,102259.78
2023-02-14T19:10:03.544Z,102253.41
2023-02-14T19:12:07.255Z,102259.22
2023-02-14T19:14:10.324Z,102260.25
2023-02-14T19:16:14.032Z,102259.03
2023-02-14T19:18:17.934Z,102266.84
2023-02-14T19:20:19.769Z,102259.03
2023-02-14T19:22:21.600Z,102260.09
2023-02-14T19:24:23.296Z,102257.22
2023-02-14T19:26:28.178Z,102263.78
2023-02-14T19:28:30.111Z,102256.59
2023-02-14T19:30:32.704Z,102261.56
2023-02-14T19:32:34.333Z,102252.91
2023-02-14T19:34:37.630Z,102255.34
2023-02-14T19:36:40.281Z,102250.00
2023-02-14T19:38:46.599Z,102243.16
2023-02-14T19:40:50.502Z,102250.63
2023-02-14T19:42:52.459Z,102241.13
2023-02-14T19:44:54.147Z,102236.16
2023-02-14T19:46:58.148Z,102234.72
2023-02-14T19:49:00.992Z,102230.59
2023-02-14T19:51:05.607Z,102234.09
2023-02-14T19:53:07.126Z,102236.13
2023-02-14T19:55:19.972Z,102230.38
2023-02-14T19:57:21.907Z,102237.59
2023-02-14T19:59:23.608Z,102229.34
2023-02-14T20:01:29.236Z,102232.63
2023-02-14T20:03:31.011Z,102231.22
2023-02-14T20:05:32.593Z,102232.25
2023-02-14T20:07:35.534Z,102224.38
2023-02-14T20:09:37.167Z,102224.59
2023-02-14T20:11:40.920Z,102217.75
2023-02-14T20:13:42.559Z,102221.28
2023-02-14T20:15:47.116Z,102216.72
2023-02-14T20:17:48.674Z,102220.44
2023-02-14T20:19:50.272Z,102221.06
2023-02-14T20:21:51.992Z,102212.63
2023-02-14T20:23:56.941Z,102208.28
2023-02-14T20:25:58.895Z,102205.22
2023-02-14T20:28:00.478Z,102202.31
2023-02-14T20:30:02.070Z,102208.69
2023-02-14T20:32:04.050Z,102206.66
2023-02-14T20:34:05.766Z,102199.63
2023-02-14T20:36:08.640Z,102200.25
2023-02-14T20:38:10.292Z,102193.69
2023-02-14T20:40:13.551Z,102198.19
2023-02-14T20:42:15.182Z,102193.25
2023-02-14T20:44:18.997Z,102189.53
2023-02-14T20:46:21.587Z,102193.88
2023-02-14T20:48:23.488Z,102194.09
2023-02-14T20:50:25.114Z,102187.47
2023-02-14T20:52:26.768Z,102196.94
2023-02-14T20:54:29.478Z,102187.06
2023-02-14T20:56:32.451Z,102187.25
2023-02-14T20:58:35.416Z,102192.22
2023-02-14T21:00:37.111Z,102191.19
2023-02-14T21:02:38.770Z,102188.09
2023-02-14T21:04:40.703Z,102186.69
2023-02-14T21:06:42.295Z,102184.69
2023-02-14T21:08:45.081Z,102187.59
2023-02-14T21:10:46.742Z,102187.59
2023-02-14T21:12:49.832Z,102183.25
2023-02-14T21:14:51.505Z,102180.34
2023-02-14T21:16:53.106Z,102179.31
2023-02-14T21:18:56.831Z,102176.88
2023-02-14T21:21:03.781Z,102173.78
2023-02-14T21:23:05.353Z,102177.44
2023-02-14T21:25:07.460Z,102176.59
2023-02-14T21:27:09.049Z,102179.06
2023-02-14T21:29:12.106Z,102178.81
2023-02-14T21:31:15.678Z,102178.00
2023-02-14T21:33:17.339Z,102181.13
2023-02-14T21:35:18.852Z,102173.13
2023-02-14T21:37:20.477Z,102167.59
2023-02-14T21:39:22.431Z,102170.88
2023-02-14T21:41:25.957Z,102174.00
2023-02-14T21:43:27.579Z,102169.69
2023-02-14T21:45:30.775Z,102170.47
2023-02-14T21:47:36.574Z,102165.34
2023-02-14T21:49:38.250Z,102162.69
2023-02-14T21:51:40.630Z,102167.41
2023-02-14T21:53:42.709Z,102172.97
2023-02-14T21:55:44.436Z,102167.41
2023-02-14T21:57:46.100Z,102155.25
2023-02-14T21:59:47.727Z,102156.66
2023-02-14T22:01:50.665Z,102158.13
2023-02-14T22:03:53.046Z,102155.25
2023-02-14T22:06:01.236Z,102155.66
2023-02-14T22:08:03.016Z,102149.69
2023-02-14T22:10:05.788Z,102149.72
2023-02-14T22:12:07.577Z,102150.94
2023-02-14T22:14:09.153Z,102145.59
2023-02-14T22:16:14.192Z,102156.25
2023-02-14T22:18:17.670Z,102153.75
2023-02-14T22:20:19.641Z,102153.53
2023-02-14T22:22:21.255Z,102150.47
2023-02-14T22:24:22.806Z,102137.31
2023-02-14T22:26:26.682Z,102145.56
2023-02-14T22:28:28.312Z,102148.22
2023-02-14T22:30:29.806Z,102149.66
2023-02-14T22:32:31.405Z,102146.19
2023-02-14T22:34:34.649Z,102159.53
2023-02-14T22:36:36.366Z,102153.56
2023-02-14T22:38:38.837Z,102143.50
2023-02-14T22:40:40.391Z,102149.25
2023-02-14T22:42:42.007Z,102142.50
2023-02-14T22:44:43.615Z,102136.50
2023-02-14T22:46:45.197Z,102138.97
2023-02-14T22:48:47.644Z,102133.63
2023-02-14T22:50:50.501Z,102128.69
2023-02-14T22:52:52.063Z,102128.69
2023-02-14T22:54:53.615Z,102133.44
2023-02-14T22:56:55.194Z,102130.16
2023-02-14T22:58:58.839Z,102135.91
2023-02-14T23:01:00.476Z,102124.34
2023-02-14T23:03:02.080Z,102125.63
2023-02-14T23:05:03.833Z,102124.78
2023-02-14T23:07:06.886Z,102120.25
2023-02-14T23:09:10.560Z,102119.00
2023-02-14T23:11:14.609Z,102120.03
2023-02-14T23:13:16.146Z,102126.41
2023-02-14T23:15:17.884Z,102119.63
2023-02-14T23:17:19.479Z,102123.78
2023-02-14T23:19:23.832Z,102125.59
2023-02-14T23:21:25.408Z,102124.19
2023-02-14T23:23:34.588Z,102120.25
2023-02-14T23:25:36.317Z,102124.38
2023-02-14T23:27:39.364Z,102128.28
2023-02-14T23:29:40.988Z,102126.25
2023-02-14T23:31:42.755Z,102126.00
2023-02-14T23:33:44.388Z,102125.81
2023-02-14T23:35:45.996Z,102127.25
2023-02-14T23:37:47.548Z,102128.28
2023-02-14T23:39:50.623Z,102126.63
2023-02-14T23:41:52.624Z,102122.94
2023-02-14T23:43:54.185Z,102126.81
2023-02-14T23:45:55.789Z,102125.38
2023-02-14T23:48:01.737Z,102121.28
2023-02-14T23:50:03.306Z,102121.06